West County, Missouri
Current Conditions -  °F | °C
As of 8:27 AM on Thursday 18 Dec 2014 (Local Time) from KSTL Reporting Station
Light Snow Light Snow  
Wind Chill: 24°   Ceiling: 4700
Heat Index: 30°   Visibility: 4mi
Dew Point: 25°   Wind: 6mph
Humidity: 80%   Direction: 70°ENE
Pressure: 30.29"   Gusts: NA
Location:  38.703°N, 90.4747°W
Report Text: KSTL 181427Z 07005KT 4SM -SN FEW010 OVC047 M01/M04 A3029 RMK AO2 P0000
Loading
Personal Weather Stations






























Interactive Weather Map New forecast layout! Learn more

10-Day Weather Forecast

Advertisements
Track Severe Weather on mobile